Tiempo atmosférico en la estación meteorológica de San Bartolome Tirajana, Cuevas del Pinar, Las Palmas (1220 m.)



Fecha
DESCASC
Temp. máxima en grados centígrados (hora)
DESCASC
Temp. mínima en grados centígrados (hora)
DESCASC
Temp. media en grados centígrados
DESCASC
Racha de viento máxima en m/sg (hora)
DESCASC
Velocidad máxima media en intervalos de 10 minutos(hora)
DESCASC
Precipitaciones diarias en mm
DESCASC
Precipitaciones de 00:00 a 06:00 en mm
DESCASC
Precipitaciones de 06:00 a 12:00 en mm
DESCASC
Precipitaciones de 12:00 a 18:00 en mm
DESCASC
Precipitaciones de 18:00 a 24:00 en mm
DESCASC
10-11-2019 19.9 (15:10) 10.3 (00:00) 15.1 15 (21:00) 8.33 (21:00) 0 0 0 0 0
09-11-2019 16.1 (13:50) 10.2 (00:00) 13.2 16.11 (07:30) 7.5 (07:30) 0 0 0 0 0
08-11-2019 18.7 (16:00) 11.3 (00:00) 15 12.22 (12:30) 4.72 (14:00) 0 0 0 0 0
07-11-2019 18.6 (15:40) 8.7 (00:00) 13.7 6.67 (11:30) 3.06 (12:50) 0 0 0 0 0
06-11-2019 15.9 (14:10) 9.7 (00:00) 12.8 13.33 (03:50) 5.56 (11:30) 0 0 0 0 0
05-11-2019 20.6 (12:50) 12.4 (00:00) 16.5 21.39 (01:40) 9.17 (01:30) 0 0 0 0 0
04-11-2019 22.5 (14:00) 14.2 (00:00) 18.3 18.06 (23:10) 6.67 (23:50) 0 0 0 0 0
03-11-2019 25.6 (14:40) 19 (00:00) 22.3 14.17 (23:50) 5 (00:50) 0 0 0 0 0
02-11-2019 24.6 (14:40) 18.9 (00:00) 21.8 21.67 (13:00) 9.17 (12:50) 0 0 0 0 0
01-11-2019 25.6 (14:00) 17.3 (00:00) 21.4 16.39 (01:40) 7.78 (05:40) 0 0 0 0 0
31-10-2019 24.8 (12:30) 18.2 (21:40) 21.5 15.28 (11:00) 8.33 (10:50) -- 0 -- 0 0
30-10-2019 25.3 (12:10) 20.3 (00:00) 22.8 10.56 (02:20) 4.44 (02:20) 0 0 0 0 0
29-10-2019 26.4 (16:00) 19.3 (00:00) 22.8 11.11 (22:00) 4.72 (22:00) 0 0 0 0 0
28-10-2019 23.7 (17:10) 19.6 (00:00) 21.7 6.11 (14:50) 3.89 (14:50) 0 0 0 0 0
27-10-2019 24.3 (12:40) 19.9 (00:00) 22.1 5.28 (19:10) 2.78 (05:10) 0.4 0 0 0 0.4
26-10-2019 25.3 (13:00) 19.4 (00:00) 22.3 6.11 (00:10) 3.33 (13:30) 1.6 0 0 1.6 0
25-10-2019 24.1 (15:00) 16.3 (00:00) 20.2 8.89 (14:40) 4.17 (15:20) 0 0 0 0 0
24-10-2019 18.7 (17:50) 8.6 (00:00) 13.7 6.11 (13:40) 3.61 (07:30) 0 0 0 0 0
23-10-2019 15.5 (15:00) 9.3 (00:00) 12.4 5 (00:10) 2.5 (05:10) 0 0 0 0 0
22-10-2019 14.3 (15:40) 9 (00:00) 11.7 11.39 (15:10) 5 (15:00) 0 0 0 0 0
21-10-2019 14.5 (15:50) 10 (00:00) 12.3 12.22 (15:20) 5.28 (13:30) 0 0 0 0 0
20-10-2019 18.4 (16:30) 13 (00:00) 15.7 6.39 (16:30) 3.89 (16:40) 1 0 0 0.2 0.8
19-10-2019 21.9 (18:30) 16.1 (00:00) 19 5.83 (15:30) 3.61 (14:50) 0 0 0 0 0
18-10-2019 20.7 (17:00) 12.4 (00:00) 16.6 5.56 (14:00) 2.78 (08:00) 0 0 0 0 0
17-10-2019 20.7 (14:40) 12.5 (00:00) 16.6 5.28 (15:40) 3.06 (13:30) 0 0 0 0 0
16-10-2019 18.7 (17:10) 13.4 (00:00) 16.1 6.39 (16:10) 3.33 (22:40) 0 0 0 0 0
15-10-2019 22.5 (15:50) 13.1 (00:00) 17.8 5.83 (15:00) 2.78 (17:30) 0 0 0 0 0
14-10-2019 20.6 (14:10) 13 (00:00) 16.8 6.11 (16:30) 2.78 (15:00) 0 0 0 0 0

Gráficas

Temp. máximas Temp. mínimas Temp. medias Precipitaciones Rachas de viento máximas Velocidades máximas media en intervalos de 10 minutos

Datos horarios

Fecha y hora oficial Temperatura (ºC) Velocidad del viento (km/h) Dirección del viento Racha (km/h) Dirección de racha Precipitación (mm) Presión (hPa) Tendencia (hPa) Humedad (%)
2019-11-12 23:00:00 16.2 9 Sur 47 Nordeste 0 -- -- 43
2019-11-12 22:00:00 16.4 9 Sudoeste 25 Noroeste 0 -- -- 38
2019-11-12 21:00:00 15.8 6 Norte 18 Nordeste 0 -- -- 41
2019-11-12 20:00:00 17.5 12 Norte 26 Norte 0 -- -- 46
2019-11-12 19:00:00 15.8 4 Sudoeste 21 Sur 0 -- -- 57
2019-11-12 18:00:00 18.3 2 Sudoeste 15 Oeste 0 -- -- 61
2019-11-12 17:00:00 20.2 4 Sudoeste 15 Noroeste 0 -- -- 54
2019-11-12 16:00:00 20.3 6 Oeste 18 Sudoeste 0 -- -- 57
2019-11-12 15:00:00 19.9 7 Oeste 19 Sudoeste 0 -- -- 62
2019-11-12 14:00:00 19.8 8 Sudoeste 23 Sudoeste 0 -- -- 60
2019-11-12 13:00:00 19 9 Sudoeste 22 Sudoeste 0 -- -- 62
2019-11-12 12:00:00 18 9 Sudoeste 19 Sudoeste 0 -- -- 62
2019-11-12 11:00:00 16.9 6 Oeste 14 Noroeste 0 -- -- 63
2019-11-12 10:00:00 14.7 3 Sudoeste 13 Oeste 0 -- -- 66
2019-11-12 09:00:00 13.3 6 Norte 18 Noroeste 0 -- -- 66
2019-11-12 08:00:00 13 4 Norte 17 Norte 0 -- -- 63
2019-11-12 07:00:00 13.2 4 Noroeste 21 Sudoeste 0 -- -- 56
2019-11-12 06:00:00 15.5 10 Este 39 Nordeste 0 -- -- 50
2019-11-12 05:00:00 15.1 7 Sudoeste 42 Sudoeste 0 -- -- 36
2019-11-12 04:00:00 16.3 10 Sudeste 46 Nordeste 0 -- -- 29
2019-11-12 03:00:00 15.7 7 Sur 39 Este 0 -- -- 35
2019-11-12 02:00:00 16.1 11 Nordeste 75 Nordeste 0 -- -- 46
2019-11-12 01:00:00 18.6 26 Este 78 Nordeste 0.2 -- -- 27
2019-11-12 00:00:00 18.9 23 Nordeste 73 Nordeste 0 -- -- 29
2019-11-11 23:00:00 18.3 21 Este 97 Nordeste 0.8 -- -- 34
2019-11-11 22:00:00 18.7 33 Nordeste 89 Nordeste 0.4 -- -- 30
2019-11-11 21:00:00 17.4 35 Nordeste 80 Nordeste 0 -- -- 39
2019-11-11 20:00:00 17.3 13 Este 69 Norte 0 -- -- 38
2019-11-11 19:00:00 18.4 33 Nordeste 82 Nordeste 0 -- -- 35
2019-11-11 18:00:00 19.1 27 Norte 81 Nordeste 0 -- -- 31
2019-11-11 17:00:00 18.6 25 Nordeste 57 Nordeste 0 -- -- 34
2019-11-11 16:00:00 17.7 17 Norte 49 Este 0 -- -- 50
2019-11-11 15:00:00 18.3 14 Norte 43 Norte 0 -- -- 44
2019-11-11 14:00:00 19.9 10 Oeste 49 Nordeste 0 -- -- 42
2019-11-11 13:00:00 20.1 12 Sudoeste 27 Sudoeste 0 -- -- 47
2019-11-11 12:00:00 21.7 12 Sudoeste 54 Nordeste 0 -- -- 27
2019-11-11 11:00:00 19.3 18 Nordeste 73 Norte 0 -- -- 32
2019-11-11 10:00:00 17.3 25 Norte 59 Nordeste 0 -- -- 38
2019-11-11 09:00:00 15 12 Sur 45 Este 0 -- -- 57
2019-11-11 08:00:00 15.9 8 Sudoeste 37 Sur 0 -- -- 39
2019-11-11 07:00:00 15.5 16 Sur 39 Sudoeste 0 -- -- 35
2019-11-11 06:00:00 15.5 8 Sudoeste 26 Sudeste 0 -- -- 29
2019-11-11 05:00:00 13.7 5 Este 10 Sudeste 0 -- -- 32
2019-11-11 04:00:00 13.5 5 Sudoeste 14 Este 0 -- -- 43
2019-11-11 03:00:00 12.9 3 Este 21 Norte 0 -- -- 45
2019-11-11 02:00:00 13.3 4 Noroeste 16 Sudoeste 0 -- -- 40
2019-11-11 01:00:00 14.7 4 Norte 28 Noroeste 0 -- -- 31
2019-11-11 00:00:00 13.8 5 Sudeste 36 Nordeste 0 -- -- 38
2019-11-10 23:00:00 12.7 5 Este 36 Este 0 -- -- 52
2019-11-10 22:00:00 14.2 11 Norte 48 Nordeste 0 -- -- 53
2019-11-10 21:00:00 13.8 30 Nordeste 54 Nordeste 0 -- -- 55
2019-11-10 20:00:00 13.8 8 Este 31 Sur 0 -- -- 59
2019-11-10 19:00:00 14 12 Noroeste 40 Norte 0 -- -- 63
2019-11-10 18:00:00 15.9 8 Noroeste 23 Sudoeste 0 -- -- 49
2019-11-10 17:00:00 17.8 6 Norte 26 Noroeste 0 -- -- 37
2019-11-10 16:00:00 19.7 7 Oeste 19 Sudoeste 0 -- -- 38
2019-11-10 15:00:00 19.6 7 Oeste 21 Oeste 0 -- -- 35
2019-11-10 14:00:00 19.5 9 Oeste 23 Oeste 0 -- -- 36
2019-11-10 13:00:00 18.6 8 Sudoeste 20 Noroeste 0 -- -- 38
2019-11-10 12:00:00 17.5 8 Oeste 20 Oeste 0 -- -- 46
2019-11-10 11:00:00 15.8 10 Sudoeste 19 Sudoeste 0 -- -- 46
2019-11-10 10:00:00 14.8 8 Sur 34 Noroeste 0 -- -- 47
2019-11-10 09:00:00 12.9 7 Sudeste 26 Norte 0 -- -- 45
2019-11-10 08:00:00 12.3 4 Sur 13 Norte 0 -- -- 39
2019-11-10 07:00:00 11.3 4 Nordeste 14 Norte 0 -- -- 54
2019-11-10 06:00:00 10.6 3 Oeste 21 Sur 0 -- -- 62
2019-11-10 05:00:00 11.4 11 Sudoeste 19 Sur 0 -- -- 63
2019-11-10 04:00:00 10.7 5 Norte 17 Sur 0 -- -- 68
2019-11-10 03:00:00 10.6 5 Sudoeste 25 Sudoeste 0 -- -- 71
2019-11-10 02:00:00 11.5 10 Sur 31 Nordeste 0 -- -- 70
2019-11-10 01:00:00 11.3 10 Sudoeste 36 Nordeste 0 -- -- 73
2019-11-10 00:00:00 11.3 6 Este 51 Norte 0 -- -- 72
2019-11-09 23:00:00 10.3 5 Sur 15 Sur 0 -- -- 85
2019-11-09 22:00:00 10.7 5 Noroeste 18 Sudoeste 0 -- -- 83
2019-11-09 21:00:00 10.9 6 Sur 22 Sudoeste 0 -- -- 87
2019-11-09 20:00:00 11.5 10 Sudoeste 31 Nordeste 0 -- -- 87
2019-11-09 19:00:00 12.2 8 Sur 19 Sudoeste 0 -- -- 84
2019-11-09 18:00:00 13.9 9 Sudoeste 18 Oeste 0 -- -- 76
2019-11-09 17:00:00 15.6 8 Sudoeste 20 Sudoeste 0 -- -- 68
2019-11-09 16:00:00 15.7 6 Sur 24 Sur 0 -- -- 69
2019-11-09 15:00:00 15.8 11 Sudoeste 21 Oeste 0 -- -- 65
2019-11-09 14:00:00 15.9 6 Oeste 29 Noroeste 0 -- -- 65
2019-11-09 13:00:00 15.3 8 Oeste 37 Noroeste 0 -- -- 65
2019-11-09 12:00:00 14.5 9 Noroeste 32 Noroeste 0 -- -- 67
2019-11-09 11:00:00 14.7 9 Sudoeste 22 Sur 0 -- -- 68
2019-11-09 10:00:00 13 12 Sudoeste 19 Sudoeste 0 -- -- 74
2019-11-09 09:00:00 11.6 9 Sur 28 Sur 0 -- -- 73
2019-11-09 08:00:00 12.8 7 Este 58 Nordeste 0 -- -- 55
2019-11-09 07:00:00 11.2 21 Nordeste 51 Nordeste 0 -- -- 74
2019-11-09 06:00:00 11.9 15 Nordeste 49 Nordeste 0 -- -- 71
2019-11-09 05:00:00 12.7 19 Nordeste 45 Nordeste 0 -- -- 51
2019-11-09 04:00:00 11.9 18 Nordeste 51 Norte 0 -- -- 56
2019-11-09 03:00:00 13.3 13 Nordeste 37 Nordeste 0 -- -- 42
2019-11-09 02:00:00 13 6 Este 14 Este 0 -- -- 39
2019-11-09 01:00:00 12.6 0 Calma 8 Sudeste 0 -- -- 33
2019-11-09 00:00:00 11.6 4 Nordeste 10 Sudeste 0 -- -- 48
2019-11-08 23:00:00 11.7 3 Sudeste 16 Nordeste 0 -- -- 54
2019-11-08 22:00:00 11.4 5 Sudeste 15 Nordeste 0 -- -- 68
2019-11-08 21:00:00 11.8 3 Este 23 Sur 0 -- -- 74
2019-11-08 20:00:00 13.2 3 Noroeste 17 Este 0 -- -- 64
2019-11-08 19:00:00 14.2 14 Nordeste 25 Nordeste 0 -- -- 40
2019-11-08 18:00:00 16.2 6 Norte 21 Sur 0 -- -- 52
2019-11-08 17:00:00 18 9 Oeste 27 Sudoeste 0 -- -- 56
2019-11-08 16:00:00 18.7 11 Sudoeste 32 Sudoeste 0 -- -- 43
2019-11-08 15:00:00 15.9 17 Noroeste 42 Norte 0 -- -- 60
2019-11-08 14:00:00 15.3 17 Noroeste 41 Norte 0 -- -- 72
2019-11-08 13:00:00 15 11 Sudeste 44 Nordeste 0 -- -- 75
2019-11-08 12:00:00 15.5 10 Nordeste 30 Nordeste 0 -- -- 68
2019-11-08 11:00:00 14.6 10 Nordeste 38 Norte 0 -- -- 72
2019-11-08 10:00:00 14.9 8 Oeste 23 Nordeste 0 -- -- 71
2019-11-08 09:00:00 13.9 6 Nordeste 25 Sudeste 0 -- -- 64
2019-11-08 08:00:00 13.3 10 Este 23 Oeste 0 -- -- 71
2019-11-08 07:00:00 13.7 9 Este 20 Sudeste 0 -- -- 63
2019-11-08 06:00:00 13.8 0 Calma 11 Sudeste 0 -- -- 48
2019-11-08 05:00:00 13.7 4 Sur 11 Sur 0 -- -- 48
2019-11-08 04:00:00 13.5 2 Este 11 Sur 0 -- -- 51
2019-11-08 03:00:00 13.4 0 Calma 11 Sur 0 -- -- 53
2019-11-08 02:00:00 12.8 4 Sur 12 Sur 0 -- -- 61
2019-11-08 01:00:00 12.7 4 Sudoeste 8 Norte 0 -- -- 63
2019-11-08 00:00:00 13 5 Sudoeste 15 Sur 0 -- -- 64
2019-11-07 23:00:00 12.1 5 Sur 17 Sudoeste 0 -- -- 72
2019-11-07 22:00:00 12.4 6 Sudeste 19 Norte 0 -- -- 74
2019-11-07 21:00:00 11.9 6 Sudoeste 22 Este 0 -- -- 90
2019-11-07 20:00:00 12.4 0 Calma 10 Sur 0 -- -- 87
2019-11-07 19:00:00 13.4 3 Oeste 15 Sudoeste 0 -- -- 83
2019-11-07 18:00:00 15.7 5 Oeste 24 Sur 0 -- -- 69
2019-11-07 17:00:00 17.6 7 Sudoeste 18 Sur 0 -- -- 57
2019-11-07 16:00:00 18.4 8 Oeste 19 Sudoeste 0 -- -- 52
2019-11-07 15:00:00 18.3 7 Oeste 19 Sudoeste 0 -- -- 49
2019-11-07 14:00:00 17.6 10 Sudoeste 23 Sudoeste 0 -- -- 54
2019-11-07 13:00:00 16.8 8 Sudoeste 19 Sudoeste 0 -- -- 62
2019-11-07 12:00:00 16.6 8 Sudoeste 24 Sudoeste 0 -- -- 58
2019-11-07 11:00:00 14.5 7 Sur 16 Sudoeste 0 -- -- 70
2019-11-07 10:00:00 12 10 Sudoeste 15 Sudoeste 0 -- -- 78
2019-11-07 09:00:00 10.8 5 Sudoeste 14 Sudeste 0 -- -- 88
2019-11-07 08:00:00 9.3 3 Sudoeste 10 Sur 0 -- -- 91
2019-11-07 07:00:00 9.3 3 Este 11 Sudeste 0 -- -- 89
2019-11-07 06:00:00 9.1 0 Calma 6 Este 0 -- -- 91
2019-11-07 05:00:00 9.4 5 Sur 10 Sur 0 -- -- 90
2019-11-07 04:00:00 9.5 0 Calma 9 Sur 0 -- -- 90
2019-11-07 03:00:00 10.8 4 Sur 8 Oeste 0 -- -- 88
2019-11-07 02:00:00 10.7 0 Calma 6 Sudeste 0 -- -- 92
2019-11-07 01:00:00 10.8 0 Calma 6 Sudoeste 0 -- -- 91
2019-11-07 00:00:00 11.3 2 Noroeste 9 Sudoeste 0 -- -- 91
2019-11-06 23:00:00 11.4 0 Calma 8 Sur 0 -- -- 91
2019-11-06 22:00:00 11.4 2 Oeste 10 Sudoeste 0 -- -- 89
2019-11-06 21:00:00 11.9 2 Sudoeste 7 Sudoeste 0 -- -- 88
2019-11-06 20:00:00 11.9 0 Calma 8 Sudoeste 0 -- -- 89
2019-11-06 19:00:00 12.3 2 Sudoeste 13 Sudoeste 0 -- -- 87
2019-11-06 18:00:00 13.8 7 Sudoeste 14 Sudoeste 0 -- -- 79
2019-11-06 17:00:00 13.9 8 Sudoeste 13 Sur 0 -- -- 77
2019-11-06 16:00:00 14.5 7 Sudoeste 16 Sur 0 -- -- 75
2019-11-06 15:00:00 15.2 5 Sudoeste 18 Sudoeste 0 -- -- 70
2019-11-06 14:00:00 15.6 8 Sudoeste 19 Sudoeste 0 -- -- 69
2019-11-06 13:00:00 14.5 7 Sur 17 Noroeste 0 -- -- 72
2019-11-06 12:00:00 13.4 11 Norte 47 Norte 0 -- -- 72
2019-11-06 11:00:00 13.1 8 Sudoeste 15 Sur 0 -- -- 80
2019-11-06 10:00:00 12.2 6 Sudeste 21 Nordeste 0 -- -- 80
2019-11-06 09:00:00 11.2 9 Nordeste 23 Nordeste 0 -- -- 77
2019-11-06 08:00:00 11 7 Nordeste 34 Norte 0 -- -- 78
2019-11-06 07:00:00 9.9 5 Sur 14 Norte 0 -- -- 78
2019-11-06 06:00:00 10.9 10 Norte 32 Este 0 -- -- 73
2019-11-06 05:00:00 11.9 10 Este 40 Nordeste 0 -- -- 78
2019-11-06 04:00:00 11.4 18 Nordeste 48 Norte 0 -- -- 76
2019-11-06 03:00:00 11.5 12 Noroeste 24 Sudoeste 0 -- -- 71
2019-11-06 02:00:00 11.7 11 Este 26 Noroeste 0 -- -- 80
2019-11-06 01:00:00 12 8 Sur 35 Este 0 -- -- 81
2019-11-06 00:00:00 12.4 11 Nordeste 44 Nordeste 0 -- -- 83
2019-11-05 23:00:00 12.9 7 Sudeste 30 Norte 0 -- -- 87
2019-11-05 22:00:00 14 8 Este 33 Nordeste 0 -- -- 85
2019-11-05 21:00:00 14.5 8 Nordeste 26 Este 0 -- -- 83
2019-11-05 20:00:00 14.9 6 Sudoeste 32 Nordeste 0 -- -- 79
2019-11-05 19:00:00 14.7 12 Nordeste 34 Nordeste 0 -- -- 79
2019-11-05 18:00:00 15.3 17 Nordeste 51 Noroeste 0 -- -- 75
2019-11-05 17:00:00 17.5 16 Noroeste 42 Nordeste 0 -- -- 45
2019-11-05 16:00:00 16.8 16 Nordeste 38 Nordeste 0 -- -- 45
2019-11-05 15:00:00 18.2 5 Norte 30 Nordeste 0 -- -- 47
2019-11-05 14:00:00 19.7 8 Oeste 28 Oeste 0 -- -- 49
2019-11-05 13:00:00 20.6 10 Oeste 28 Noroeste 0 -- -- 39
2019-11-05 12:00:00 18.7 8 Este 21 Nordeste 0 -- -- 52
2019-11-05 11:00:00 16.7 6 Este 19 Nordeste 0 -- -- 72
2019-11-05 10:00:00 16.2 8 Este 22 Este 0 -- -- 75
2019-11-05 09:00:00 17.1 10 Sur 35 Nordeste 0 -- -- 41
2019-11-05 08:00:00 17.8 15 Nordeste 42 Nordeste 0 -- -- 32
2019-11-05 07:00:00 15.2 14 Nordeste 49 Nordeste 0 -- -- 66
2019-11-05 06:00:00 17.8 27 Nordeste 55 Nordeste 0 -- -- 39
2019-11-05 05:00:00 15.4 16 Nordeste 49 Nordeste 0 -- -- 53
2019-11-05 04:00:00 15.7 24 Nordeste 53 Norte 0 -- -- 53
2019-11-05 03:00:00 13.9 16 Nordeste 58 Nordeste 0 -- -- 66
2019-11-05 02:00:00 14.6 28 Nordeste 77 Nordeste 0 -- -- 59
2019-11-05 01:00:00 15.7 23 Norte 55 Nordeste 0 -- -- 56
2019-11-05 00:00:00 14.9 22 Norte 65 Noroeste 0 -- -- 68
2019-11-04 23:00:00 14.4 21 Norte 53 Nordeste 0 -- -- 74
2019-11-04 22:00:00 16.4 21 Nordeste 49 Nordeste 0 -- -- 53
2019-11-04 21:00:00 18.2 16 Nordeste 51 Norte 0 -- -- 40
2019-11-04 20:00:00 19.2 15 Nordeste 45 Nordeste 0 -- -- 31
2019-11-04 19:00:00 18.1 15 Nordeste 33 Este 0 -- -- 41
2019-11-04 18:00:00 18.2 7 Sudoeste 19 Noroeste 0 -- -- 56
2019-11-04 17:00:00 19.9 8 Sudoeste 21 Norte 0 -- -- 50
2019-11-04 16:00:00 21.4 10 Nordeste 28 Oeste 0 -- -- 39
2019-11-04 15:00:00 21.2 12 Nordeste 29 Oeste 0 -- -- 35
2019-11-04 14:00:00 22.5 10 Oeste 40 Oeste 0 -- -- 29
2019-11-04 13:00:00 21.6 10 Norte 31 Oeste 0 -- -- 23
2019-11-04 12:00:00 20.3 13 Sudoeste 35 Oeste 0 -- -- 34
2019-11-04 11:00:00 17.7 5 Norte 16 Nordeste 0 -- -- 61
2019-11-04 10:00:00 16.3 8 Nordeste 27 Noroeste 0 -- -- 64
2019-11-04 09:00:00 17.3 7 Este 45 Norte 0 -- -- 42
2019-11-04 08:00:00 17.3 14 Norte 33 Norte 0 -- -- 41
2019-11-04 07:00:00 17.9 12 Nordeste 34 Norte 0 -- -- 28
2019-11-04 06:00:00 19.1 10 Nordeste 42 Nordeste 0 -- -- 16
2019-11-04 05:00:00 19.4 15 Nordeste 47 Norte 0 -- -- 14
2019-11-04 04:00:00 18 12 Nordeste 41 Nordeste 0 -- -- 19
2019-11-04 03:00:00 18.9 15 Nordeste 40 Este 0 -- -- 16
2019-11-04 02:00:00 19.7 10 Noroeste 44 Nordeste 0 -- -- 23
2019-11-04 01:00:00 19.8 21 Norte 52 Nordeste 0 -- -- 29
2019-11-04 00:00:00 20.2 12 Nordeste 51 Este 0 -- -- 23
2019-11-03 23:00:00 20.2 10 Oeste 34 Nordeste 0 -- -- 21
2019-11-03 22:00:00 20.8 10 Oeste 37 Noroeste 0 -- -- 18
2019-11-03 21:00:00 20.3 8 Nordeste 39 Sur 0 -- -- 18
2019-11-03 20:00:00 20.3 10 Norte 36 Oeste 0 -- -- 26
2019-11-03 19:00:00 20.9 10 Oeste 40 Oeste 0 -- -- 27
2019-11-03 18:00:00 22.2 14 Oeste 35 Oeste 0 -- -- 27
2019-11-03 17:00:00 23.4 11 Noroeste 39 Noroeste 0 -- -- 31
2019-11-03 16:00:00 24.5 12 Sudoeste 27 Sur 0 -- -- 29
2019-11-03 15:00:00 25.6 8 Oeste 25 Nordeste 0 -- -- 28
2019-11-03 14:00:00 24.3 9 Noroeste 26 Noroeste 0 -- -- 29
2019-11-03 13:00:00 24.1 9 Nordeste 26 Nordeste 0 -- -- 30
2019-11-03 12:00:00 23.9 14 Oeste 33 Oeste 0 -- -- 31
2019-11-03 11:00:00 23.2 9 Oeste 34 Noroeste 0 -- -- 33
2019-11-03 10:00:00 22.2 9 Oeste 36 Este 0 -- -- 37
2019-11-03 09:00:00 20.5 5 Sudeste 26 Norte 0 -- -- 42
2019-11-03 08:00:00 19.7 5 Sudoeste 15 Nordeste 0 -- -- 43
2019-11-03 07:00:00 19.8 4 Sudoeste 21 Sur 0 -- -- 44
2019-11-03 06:00:00 20.8 12 Sudeste 33 Norte 0 -- -- 42
2019-11-03 05:00:00 19.1 6 Sur 15 Este 0 -- -- 46
2019-11-03 04:00:00 19.3 5 Sudeste 15 Sur 0 -- -- 46
2019-11-03 03:00:00 20.2 5 Sudeste 40 Nordeste 0 -- -- 44
2019-11-03 02:00:00 20.6 6 Nordeste 44 Noroeste 0 -- -- 42
2019-11-03 01:00:00 21.4 11 Nordeste 42 Nordeste 0 -- -- 42
2019-11-03 00:00:00 20.8 10 Este 23 Este 0 -- -- 43
2019-11-02 23:00:00 20.7 9 Sur 24 Sur 0 -- -- 42
2019-11-02 22:00:00 20.8 9 Sudoeste 27 Nordeste 0 -- -- 41
2019-11-02 21:00:00 20.8 9 Sur 19 Sudoeste 0 -- -- 40
2019-11-02 20:00:00 20.9 9 Sudoeste 33 Sur 0 -- -- 39
2019-11-02 19:00:00 21.3 8 Sudoeste 38 Sudoeste 0 -- -- 39
2019-11-02 18:00:00 22.2 9 Sudoeste 31 Sur 0 -- -- 37
2019-11-02 17:00:00 23.7 10 Sudoeste 27 Sur 0 -- -- 34
2019-11-02 16:00:00 24.3 10 Sudoeste 33 Sudoeste 0 -- -- 34
2019-11-02 15:00:00 24.5 17 Sudoeste 34 Oeste 0 -- -- 34
2019-11-02 14:00:00 24 17 Oeste 61 Norte 0 -- -- 35
2019-11-02 13:00:00 23 31 Norte 78 Norte 0 -- -- 37
2019-11-02 12:00:00 23 23 Noroeste 69 Norte 0 -- -- 36
2019-11-02 11:00:00 22.8 20 Oeste 60 Norte 0 -- -- 36
2019-11-02 10:00:00 21.2 15 Oeste 59 Norte 0 -- -- 40
2019-11-02 09:00:00 20.1 14 Sudoeste 46 Noroeste 0 -- -- 43
2019-11-02 08:00:00 19.3 14 Sudoeste 38 Sudoeste 0 -- -- 46
2019-11-02 07:00:00 19.3 17 Sudoeste 33 Sudoeste 0 -- -- 46
2019-11-02 06:00:00 19.2 12 Sudoeste 49 Sur 0 -- -- 45
2019-11-02 05:00:00 19.2 12 Sudoeste 36 Sur 0 -- -- 45
2019-11-02 04:00:00 19 17 Sudoeste 48 Sudoeste 0 -- -- 44
2019-11-02 03:00:00 19.1 17 Sur 40 Sur 0 -- -- 44
2019-11-02 02:00:00 19.1 11 Sudoeste 36 Oeste 0 -- -- 43
2019-11-02 01:00:00 19.4 17 Sudoeste 38 Sur 0 -- -- 40
2019-11-02 00:00:00 19.8 18 Sudoeste 41 Noroeste 0 -- -- 38
2019-11-01 23:00:00 20.4 15 Sudoeste 42 Oeste 0 -- -- 36
2019-11-01 22:00:00 20.6 14 Sudoeste 40 Sudoeste 0 -- -- 35
2019-11-01 21:00:00 20.6 11 Sudoeste 34 Sur 0 -- -- 34
2019-11-01 20:00:00 20.7 12 Sudoeste 26 Sudoeste 0 -- -- 36
2019-11-01 19:00:00 20.9 10 Sudoeste 39 Sur 0 -- -- 37
2019-11-01 18:00:00 21.8 12 Sudoeste 27 Norte 0 -- -- 38
2019-11-01 17:00:00 22.9 9 Sudoeste 36 Oeste 0 -- -- 37
2019-11-01 16:00:00 24.3 11 Sur 34 Este 0 -- -- 31
2019-11-01 15:00:00 25 8 Sudoeste 31 Este 0 -- -- 26
2019-11-01 14:00:00 25.6 11 Sur 34 Nordeste 0 -- -- 16
2019-11-01 13:00:00 25 10 Sur 37 Nordeste 0 -- -- 20
2019-11-01 12:00:00 24.3 13 Sur 52 Este 0 -- -- 26
2019-11-01 11:00:00 23.4 17 Sur 44 Este 0 -- -- 29
2019-11-01 10:00:00 22.3 16 Sudeste 47 Este 0 -- -- 34
2019-11-01 09:00:00 19.6 8 Sudoeste 50 Norte 0 -- -- 45
2019-11-01 08:00:00 19.5 13 Oeste 46 Norte 0 -- -- 43
2019-11-01 07:00:00 18.9 12 Sudoeste 41 Noroeste 0 -- -- 47
2019-11-01 06:00:00 19 26 Noroeste 55 Norte 0 -- -- 51
2019-11-01 05:00:00 18.5 11 Sudoeste 35 Sudoeste 0 -- -- 53
2019-11-01 04:00:00 18.6 10 Sudoeste 33 Noroeste 0 -- -- 45
2019-11-01 03:00:00 18.8 10 Sudoeste 40 Norte 0 -- -- 39
2019-11-01 02:00:00 18.1 19 Noroeste 59 Norte 0 -- -- 49
2019-11-01 01:00:00 17.4 10 Oeste 29 Sudoeste 0 -- -- 55
2019-11-01 00:00:00 18.8 9 Sudoeste 35 Sudoeste 0 -- -- 46
2019-10-31 23:00:00 19.2 15 Sudoeste 28 Oeste 0 -- -- 45
2019-10-31 22:00:00 18.3 7 Sudoeste 50 Nordeste 0 -- -- 48
2019-10-31 21:00:00 19.9 15 Nordeste 39 Nordeste 0 -- -- 39
2019-10-31 20:00:00 18.9 9 Sudoeste 20 Norte 0 -- -- 53
2019-10-31 19:00:00 20.4 10 Sudeste 45 Nordeste 0 -- -- 43
2019-10-31 18:00:00 21.4 8 Noroeste 28 Sudoeste 0 -- -- 49
2019-10-31 17:00:00 22.9 9 Noroeste 18 Oeste 0 -- -- 47
2019-10-31 16:00:00 24.2 9 Oeste 25 Oeste 0 -- -- 45
2019-10-31 15:00:00 23.9 11 Oeste 25 Sudoeste 0 -- -- 47
2019-10-31 14:00:00 23.3 12 Oeste 23 Sudoeste 0 -- -- 45
2019-10-31 13:00:00 23.4 17 Norte 42 Norte 0 -- -- 42
2019-10-31 12:00:00 -- -- -- -- -- -- -- -- --
2019-10-31 11:00:00 22.7 22 Noroeste 55 Norte 0 -- -- 29
2019-10-31 10:00:00 22.1 13 Sudoeste 41 Noroeste 0 -- -- 32
2019-10-31 09:00:00 20.7 24 Noroeste 46 Norte 0 -- -- 31
2019-10-31 08:00:00 19.2 10 Norte 35 Norte 0 -- -- 38
2019-10-31 07:00:00 19.5 12 Sur 32 Sur 0 -- -- 33
2019-10-31 06:00:00 19.7 11 Sudoeste 32 Sur 0 -- -- 38
2019-10-31 05:00:00 19.6 11 Sudoeste 32 Sudoeste 0 -- -- 40
2019-10-31 04:00:00 19.6 10 Sur 53 Nordeste 0 -- -- 39
2019-10-31 03:00:00 20.2 15 Nordeste 36 Nordeste 0 -- -- 38
2019-10-31 02:00:00 19.9 10 Sur 31 Noroeste 0 -- -- 39
2019-10-31 01:00:00 20.9 12 Sudeste 35 Sur 0 -- -- 37
2019-10-31 00:00:00 20.6 10 Sur 37 Norte 0 -- -- 42
2019-10-30 23:00:00 20.5 9 Noroeste 24 Norte 0 -- -- 42
2019-10-30 22:00:00 20.5 5 Sudoeste 36 Norte 0 -- -- 39
2019-10-30 21:00:00 21.2 10 Noroeste 26 Noroeste 0 -- -- 37
2019-10-30 20:00:00 20.6 4 Oeste 23 Norte 0 -- -- 37
2019-10-30 19:00:00 21.2 12 Norte 36 Este 0 -- -- 37
2019-10-30 18:00:00 22.3 12 Este 35 Sudeste 0 -- -- 41
2019-10-30 17:00:00 23.3 13 Norte 36 Nordeste 0 -- -- 42
2019-10-30 16:00:00 24.1 14 Norte 32 Norte 0 -- -- 45
2019-10-30 15:00:00 24.2 13 Norte 31 Nordeste 0 -- -- 46
2019-10-30 14:00:00 25.2 10 Sur 36 Nordeste 0 -- -- 43
2019-10-30 13:00:00 25 9 Noroeste 24 Este 0 -- -- 42
2019-10-30 12:00:00 24.9 8 Nordeste 27 Oeste 0 -- -- 43
2019-10-30 11:00:00 23.7 11 Noroeste 33 Noroeste 0 -- -- 45
2019-10-30 10:00:00 22.7 9 Oeste 31 Nordeste 0 -- -- 47
2019-10-30 09:00:00 21.6 9 Norte 27 Este 0 -- -- 49
2019-10-30 08:00:00 21.2 9 Norte 22 Nordeste 0 -- -- 49
2019-10-30 07:00:00 21.3 10 Nordeste 37 Norte 0 -- -- 48
2019-10-30 06:00:00 21.4 10 Nordeste 30 Este 0 -- -- 47
2019-10-30 05:00:00 21.6 12 Nordeste 31 Nordeste 0 -- -- 46
2019-10-30 04:00:00 21.8 13 Norte 30 Norte 0 -- -- 45
2019-10-30 03:00:00 21.9 15 Nordeste 38 Nordeste 0 -- -- 45
2019-10-30 02:00:00 21.9 14 Nordeste 33 Norte 0 -- -- 45
2019-10-30 01:00:00 22.1 13 Norte 30 Nordeste 0 -- -- 46
2019-10-30 00:00:00 22.1 11 Norte 31 Nordeste 0 -- -- 45
2019-10-29 23:00:00 22.2 12 Nordeste 33 Nordeste 0 -- -- 45
2019-10-29 22:00:00 22.3 17 Norte 40 Noroeste 0 -- -- 44
2019-10-29 21:00:00 22.1 9 Nordeste 32 Nordeste 0 -- -- 46
2019-10-29 20:00:00 22.4 9 Sudoeste 21 Sudoeste 0 -- -- 45
2019-10-29 19:00:00 22.6 8 Sudoeste 18 Sudoeste 0 -- -- 44
2019-10-29 18:00:00 24.1 6 Oeste 25 Oeste 0 -- -- 42
2019-10-29 17:00:00 25.2 9 Oeste 28 Oeste 0 -- -- 41
2019-10-29 16:00:00 26.4 7 Oeste 29 Oeste 0 -- -- 38
2019-10-29 15:00:00 26.2 10 Oeste 34 Oeste 0 -- -- 38
2019-10-29 14:00:00 25.7 9 Oeste 30 Oeste 0 -- -- 41
2019-10-29 13:00:00 23.8 10 Nordeste 20 Oeste 0 -- -- 56
2019-10-29 12:00:00 23.2 8 Nordeste 22 Norte 0 -- -- 55
2019-10-29 11:00:00 24.5 7 Oeste 18 Sudoeste 0 -- -- 43
2019-10-29 10:00:00 23.2 4 Oeste 14 Sudoeste 0 -- -- 43
2019-10-29 09:00:00 21.4 4 Oeste 14 Nordeste 0 -- -- 45
2019-10-29 08:00:00 20.7 6 Sudeste 15 Norte 0 -- -- 47
2019-10-29 07:00:00 19.7 3 Este 14 Sudeste 0 -- -- 50
2019-10-29 06:00:00 19.5 5 Sur 10 Sudoeste 0 -- -- 53
2019-10-29 05:00:00 19.7 0 Calma 10 Sur 0 -- -- 53
2019-10-29 04:00:00 19.8 4 Sur 13 Sur 0 -- -- 54
2019-10-29 03:00:00 20 5 Sur 9 Sudoeste 0 -- -- 54
2019-10-29 02:00:00 20.6 5 Sudoeste 9 Sudoeste 0 -- -- 53
2019-10-29 01:00:00 20.4 0 Calma 4 Sur 0 -- -- 51
2019-10-29 00:00:00 20.3 3 Sur 7 Sur 0 -- -- 49
2019-10-28 23:00:00 20.1 3 Sur 8 Sur 0 -- -- 51
2019-10-28 22:00:00 19.8 2 Sudeste 5 Sudeste 0 -- -- 59
2019-10-28 21:00:00 19.9 0 Calma 8 Sur 0 -- -- 62
2019-10-28 20:00:00 20.2 5 Este 11 Este 0 -- -- 57
2019-10-28 19:00:00 20.8 0 Calma 9 Sudoeste 0 -- -- 61
2019-10-28 18:00:00 22.6 4 Oeste 13 Oeste 0 -- -- 57
2019-10-28 17:00:00 23.6 6 Oeste 17 Nordeste 0 -- -- 54
2019-10-28 16:00:00 22.7 9 Nordeste 18 Nordeste 0 -- -- 57
2019-10-28 15:00:00 22.5 10 Nordeste 22 Nordeste 0 -- -- 57
2019-10-28 14:00:00 22.5 12 Nordeste 21 Nordeste 0 -- -- 57
2019-10-28 13:00:00 22.7 12 Nordeste 20 Nordeste 0 -- -- 58
2019-10-28 12:00:00 22.9 8 Nordeste 18 Nordeste 0 -- -- 58
2019-10-28 11:00:00 21.9 10 Nordeste 15 Nordeste 0 -- -- 60
2019-10-28 10:00:00 22.9 6 Sudoeste 13 Sur 0 -- -- 52
2019-10-28 09:00:00 21.8 2 Sudoeste 6 Sur 0 -- -- 47
2019-10-28 08:00:00 20.7 4 Sur 7 Sur 0 -- -- 51
2019-10-28 07:00:00 20.2 4 Sur 8 Sudeste 0 -- -- 53
2019-10-28 06:00:00 20.4 4 Sur 7 Sur 0 -- -- 54
2019-10-28 05:00:00 20.6 4 Sur 6 Sur 0 -- -- 51
2019-10-28 04:00:00 20.5 5 Sur 9 Sudoeste 0 -- -- 51
2019-10-28 03:00:00 20.6 4 Sur 9 Sur 0 -- -- 52
2019-10-28 02:00:00 21.2 0 Calma 9 Sudoeste 0 -- -- 51
2019-10-28 01:00:00 21.1 3 Sur 7 Sudoeste 0 -- -- 52
2019-10-28 00:00:00 21.1 4 Sur 8 Sur 0 -- -- 54
2019-10-27 23:00:00 21.4 3 Sur 6 Sur 0 -- -- 53
2019-10-27 22:00:00 21.6 0 Calma 9 Este 0 -- -- 51
2019-10-27 21:00:00 21.4 5 Este 15 Nordeste 0 -- -- 54
2019-10-27 20:00:00 20.4 6 Sudoeste 19 Sudoeste 0.2 -- -- 56
2019-10-27 19:00:00 20.3 8 Sudoeste 18 Oeste 0.2 -- -- 64
2019-10-27 18:00:00 21.1 0 Calma 13 Nordeste 0 -- -- 60
2019-10-27 17:00:00 22 3 Sur 13 Oeste 0 -- -- 56
2019-10-27 16:00:00 22.6 7 Oeste 13 Oeste 0 -- -- 55
2019-10-27 15:00:00 22.7 6 Sudoeste 18 Sudoeste 0 -- -- 56
2019-10-27 14:00:00 23.2 10 Sudoeste 17 Sudoeste 0 -- -- 54
2019-10-27 13:00:00 23.9 6 Nordeste 14 Nordeste 0 -- -- 55
2019-10-27 12:00:00 23.2 5 Oeste 17 Oeste 0 -- -- 56
2019-10-27 11:00:00 22.5 3 Nordeste 11 Este 0 -- -- 57
2019-10-27 10:00:00 21.7 4 Sudeste 13 Este 0 -- -- 60
2019-10-27 09:00:00 21.4 6 Sudeste 11 Sur 0 -- -- 61
2019-10-27 08:00:00 20.7 7 Este 13 Este 0 -- -- 63
2019-10-27 07:00:00 20.2 6 Este 12 Este 0 -- -- 66
2019-10-27 06:00:00 20.7 8 Este 16 Este 0 -- -- 65
2019-10-27 05:00:00 20.6 9 Nordeste 13 Nordeste 0 -- -- 66
2019-10-27 04:00:00 20.5 8 Nordeste 12 Este 0 -- -- 65
2019-10-27 03:00:00 21.3 4 Este 10 Este 0 -- -- 60
2019-10-27 02:00:00 20.4 6 Este 14 Este 0 -- -- 66
2019-10-27 01:00:00 20.5 8 Este 18 Nordeste 0 -- -- 66
2019-10-27 00:00:00 21 8 Sudeste 18 Este 0 -- -- 66
2019-10-26 23:00:00 21.1 7 Sudeste 14 Sudeste 0 -- -- 65
2019-10-26 22:00:00 21.1 5 Sudeste 12 Sur 0 -- -- 66
2019-10-26 21:00:00 21.2 5 Este 12 Nordeste 0 -- -- 66
2019-10-26 20:00:00 21.5 7 Este 10 Nordeste 0 -- -- 66
2019-10-26 19:00:00 22.3 5 Este 11 Nordeste 0 -- -- 66
2019-10-26 18:00:00 23.5 3 Sudoeste 12 Sudoeste 0 -- -- 59
2019-10-26 17:00:00 23.2 5 Sudoeste 13 Oeste 0 -- -- 60
2019-10-26 16:00:00 21.6 3 Noroeste 12 Nordeste 0 -- -- 68
2019-10-26 15:00:00 19.4 5 Este 17 Oeste 1.6 -- -- 78
2019-10-26 14:00:00 23.7 8 Sudoeste 21 Sudoeste 0 -- -- 56
2019-10-26 13:00:00 25.3 7 Sudoeste 22 Sudoeste 0 -- -- 50
2019-10-26 12:00:00 23.6 7 Sudoeste 17 Nordeste 0 -- -- 59
2019-10-26 11:00:00 20.3 10 Este 19 Este 0 -- -- 56
2019-10-26 10:00:00 22.4 5 Sudoeste 12 Sudoeste 0 -- -- 64
2019-10-26 09:00:00 21.6 4 Sudoeste 10 Sudoeste 0 -- -- 66
2019-10-26 08:00:00 21.1 4 Sur 9 Oeste 0 -- -- 66
2019-10-26 07:00:00 21 6 Sudoeste 10 Sudoeste 0 -- -- 65
2019-10-26 06:00:00 21.1 5 Sudoeste 13 Oeste 0 -- -- 65
2019-10-26 05:00:00 21.1 5 Sudoeste 14 Sudoeste 0 -- -- 65
2019-10-26 04:00:00 21.1 8 Sudoeste 13 Sudoeste 0 -- -- 66
2019-10-26 03:00:00 21.1 7 Sudoeste 17 Sudoeste 0 -- -- 65
2019-10-26 02:00:00 21.3 10 Sudoeste 19 Oeste 0 -- -- 57
2019-10-26 01:00:00 21.9 10 Sudoeste 22 Sudoeste 0 -- -- 44
2019-10-26 00:00:00 22.1 12 Sudoeste 22 Sudoeste 0 -- -- 33
2019-10-25 23:00:00 21.7 11 Sudoeste 18 Sudoeste 0 -- -- 29
2019-10-25 22:00:00 21.8 12 Sudoeste 19 Oeste 0 -- -- 33
2019-10-25 21:00:00 21.8 10 Sudoeste 20 Sudoeste 0 -- -- 35
2019-10-25 20:00:00 21.5 15 Sudoeste 21 Sudoeste 0 -- -- 45
2019-10-25 19:00:00 22.1 9 Oeste 23 Oeste 0 -- -- 46
2019-10-25 18:00:00 22.7 11 Oeste 23 Oeste 0 -- -- 44
2019-10-25 17:00:00 22.7 9 Oeste 26 Oeste 0 -- -- 49
2019-10-25 16:00:00 23.5 10 Oeste 31 Oeste 0 -- -- 49
2019-10-25 15:00:00 24.1 13 Oeste 32 Oeste 0 -- -- 48
2019-10-25 14:00:00 23.2 13 Oeste 28 Noroeste 0 -- -- 48
2019-10-25 13:00:00 22.8 10 Oeste 23 Oeste 0 -- -- 46
2019-10-25 12:00:00 21.7 8 Oeste 24 Sudoeste 0 -- -- 48
2019-10-25 11:00:00 21.2 6 Oeste 22 Sudoeste 0 -- -- 46
2019-10-25 10:00:00 20.4 8 Noroeste 18 Oeste 0 -- -- 46
2019-10-25 09:00:00 19.4 9 Noroeste 17 Oeste 0 -- -- 50
2019-10-25 08:00:00 18.4 6 Nordeste 19 Noroeste 0 -- -- 45
2019-10-25 07:00:00 18.7 9 Noroeste 21 Oeste 0 -- -- 41
2019-10-25 06:00:00 18.3 6 Oeste 21 Oeste 0 -- -- 42
2019-10-25 05:00:00 18.4 6 Oeste 19 Noroeste 0 -- -- 41
2019-10-25 04:00:00 18.4 8 Noroeste 18 Norte 0 -- -- 42
2019-10-25 03:00:00 17.5 5 Noroeste 12 Noroeste 0 -- -- 45
2019-10-25 02:00:00 17.5 6 Noroeste 19 Noroeste 0 -- -- 43
2019-10-25 01:00:00 16.9 5 Noroeste 12 Noroeste 0 -- -- 43
2019-10-25 00:00:00 16.5 6 Sudoeste 14 Sudoeste 0 -- -- 37
2019-10-24 23:00:00 16.3 6 Sudoeste 10 Oeste 0 -- -- 26
2019-10-24 22:00:00 16.4 3 Oeste 8 Sudoeste 0 -- -- 21
2019-10-24 21:00:00 16.6 0 Calma 9 Sur 0 -- -- 16
2019-10-24 20:00:00 17.1 0 Calma 6 Sudeste 0 -- -- 20
2019-10-24 19:00:00 16.8 0 Calma 11 Nordeste 0 -- -- 65
2019-10-24 18:00:00 18.5 6 Oeste 14 Oeste 0 -- -- 60
2019-10-24 17:00:00 18.3 4 Nordeste 13 Oeste 0 -- -- 59
2019-10-24 16:00:00 16.8 8 Nordeste 16 Nordeste 0 -- -- 67
2019-10-24 15:00:00 17.1 9 Nordeste 19 Nordeste 0 -- -- 65
2019-10-24 14:00:00 16.5 8 Nordeste 22 Nordeste 0 -- -- 65
2019-10-24 13:00:00 16.2 7 Nordeste 18 Norte 0 -- -- 66
2019-10-24 12:00:00 15.4 5 Nordeste 18 Este 0 -- -- 64
2019-10-24 11:00:00 14 8 Nordeste 21 Este 0 -- -- 61
2019-10-24 10:00:00 12.6 6 Sudeste 19 Este 0 -- -- 29
2019-10-24 09:00:00 13.4 7 Sudeste 18 Sur 0 -- -- 18
2019-10-24 08:00:00 8.8 8 Este 17 Este 0 -- -- 84
2019-10-24 07:00:00 8.8 0 Calma 8 Sur 0 -- -- 92
2019-10-24 06:00:00 8.9 4 Sur 7 Sudoeste 0 -- -- 83
2019-10-24 05:00:00 9.1 4 Sur 9 Sur 0 -- -- 83
2019-10-24 04:00:00 9.1 4 Este 8 Sur 0 -- -- 88
2019-10-24 03:00:00 9 6 Sur 10 Sur 0 -- -- 92
2019-10-24 02:00:00 9.2 4 Sur 6 Sur 0 -- -- 94
2019-10-24 01:00:00 9.3 4 Este 13 Este 0 -- -- 96
2019-10-24 00:00:00 9.8 4 Sudeste 12 Nordeste 0 -- -- 94
2019-10-23 23:00:00 10.6 0 Calma 9 Sur 0 -- -- 92
2019-10-23 22:00:00 10.4 0 Calma 6 Nordeste 0 -- -- 88
2019-10-23 21:00:00 11 5 Este 11 Nordeste 0 -- -- 90
2019-10-23 20:00:00 11.9 5 Este 11 Sur 0 -- -- 87
2019-10-23 19:00:00 12.8 5 Nordeste 12 Norte 0 -- -- 84
2019-10-23 18:00:00 13.6 5 Oeste 15 Sudoeste 0 -- -- 82
2019-10-23 17:00:00 14 6 Sudoeste 16 Sur 0 -- -- 81
2019-10-23 16:00:00 15.3 8 Sur 16 Sur 0 -- -- 75
2019-10-23 15:00:00 15.5 8 Oeste 18 Oeste 0 -- -- 73
2019-10-23 14:00:00 13.9 8 Sudoeste 15 Sudoeste 0 -- -- 77
2019-10-23 13:00:00 13.9 5 Oeste 14 Noroeste 0 -- -- 75
2019-10-23 12:00:00 12.8 7 Nordeste 13 Nordeste 0 -- -- 83
2019-10-23 11:00:00 12.3 4 Sudeste 12 Norte 0 -- -- 75
2019-10-23 10:00:00 10.6 3 Sur 8 Oeste 0 -- -- 80
2019-10-23 09:00:00 10 4 Sudoeste 10 Sur 0 -- -- 84
2019-10-23 08:00:00 9.4 5 Sur 9 Sudoeste 0 -- -- 85
2019-10-23 07:00:00 9.8 3 Sudoeste 11 Este 0 -- -- 85
2019-10-23 06:00:00 9.5 5 Sudeste 15 Sudoeste 0 -- -- 83
2019-10-23 05:00:00 9.9 8 Sudoeste 17 Sur 0 -- -- 85
2019-10-23 04:00:00 10 3 Sur 6 Sudoeste 0 -- -- 85
2019-10-23 03:00:00 10.6 4 Oeste 9 Sudoeste 0 -- -- 85
2019-10-23 02:00:00 10.6 0 Calma 10 Oeste 0 -- -- 83
2019-10-23 01:00:00 10.4 3 Este 18 Sudoeste 0 -- -- 81
2019-10-23 00:00:00 11 7 Sur 11 Sur 0 -- -- 82
2019-10-22 23:00:00 10.9 5 Sudoeste 12 Sudoeste 0 -- -- 78
2019-10-22 22:00:00 10.3 4 Sudeste 6 Nordeste 0 -- -- 77
2019-10-22 21:00:00 11 5 Nordeste 17 Nordeste 0 -- -- 69
2019-10-22 20:00:00 11.5 5 Nordeste 17 Norte 0 -- -- 66
2019-10-22 19:00:00 12 10 Norte 35 Norte 0 -- -- 73
2019-10-22 18:00:00 12.7 17 Norte 40 Norte 0 -- -- 68
2019-10-22 17:00:00 13.6 13 Noroeste 37 Nordeste 0 -- -- 61
2019-10-22 16:00:00 13.7 11 Norte 41 Noroeste 0 -- -- 63
2019-10-22 15:00:00 12.9 18 Norte 34 Noroeste 0 -- -- 66
2019-10-22 14:00:00 12.9 11 Norte 33 Nordeste 0 -- -- 70
2019-10-22 13:00:00 13.7 7 Sudoeste 28 Nordeste 0 -- -- 69
2019-10-22 12:00:00 12.6 12 Norte 28 Norte 0 -- -- 69
2019-10-22 11:00:00 11.8 9 Noroeste 22 Oeste 0 -- -- 68
2019-10-22 10:00:00 10.3 5 Sur 14 Sur 0 -- -- 82
2019-10-22 09:00:00 9.8 4 Sur 21 Nordeste 0 -- -- 78
2019-10-22 08:00:00 10 8 Norte 23 Sudeste 0 -- -- 82
2019-10-22 07:00:00 10 3 Sur 17 Sur 0 -- -- 83
2019-10-22 06:00:00 10 4 Sudoeste 27 Norte 0 -- -- 71
2019-10-22 05:00:00 9.4 5 Sur 10 Sudeste 0 -- -- 85
2019-10-22 04:00:00 9.6 4 Norte 21 Este 0 -- -- 76
2019-10-22 03:00:00 10.3 7 Sudeste 30 Sur 0 -- -- 76
2019-10-22 02:00:00 10.6 6 Sur 19 Este 0 -- -- 78
2019-10-22 01:00:00 10 12 Sudoeste 31 Sur 0 -- -- 75
2019-10-22 00:00:00 10 6 Sudoeste 23 Sudoeste 0 -- -- 73
2019-10-21 23:00:00 11.3 11 Sur 37 Norte 0 -- -- 70
2019-10-21 22:00:00 10.2 4 Sudoeste 16 Nordeste 0 -- -- 72
2019-10-21 21:00:00 11 14 Nordeste 36 Norte 0 -- -- 65
2019-10-21 20:00:00 11.3 10 Noroeste 32 Norte 0 -- -- 67
2019-10-21 19:00:00 11.8 10 Nordeste 26 Norte 0 -- -- 72
2019-10-21 18:00:00 13.3 6 Este 27 Este 0 -- -- 65
2019-10-21 17:00:00 13.1 8 Norte 31 Nordeste 0 -- -- 70
2019-10-21 16:00:00 14.1 8 Sudeste 44 Este 0 -- -- 68
2019-10-21 15:00:00 14.3 10 Norte 39 Nordeste 0 -- -- 65
2019-10-21 14:00:00 13.1 17 Nordeste 35 Nordeste 0 -- -- 75
2019-10-21 13:00:00 13.3 14 Norte 29 Norte 0 -- -- 72
2019-10-21 12:00:00 13.2 9 Noroeste 29 Noroeste 0 -- -- 69
2019-10-21 11:00:00 12.4 6 Sudoeste 9 Sudoeste 0 -- -- 78
2019-10-21 10:00:00 11.3 5 Sur 10 Norte 0 -- -- 87
2019-10-21 09:00:00 11.1 9 Nordeste 26 Norte 0 -- -- 77
2019-10-21 08:00:00 10.6 3 Este 27 Noroeste 0 -- -- 84
2019-10-21 07:00:00 11.5 10 Nordeste 28 Nordeste 0 -- -- 74
2019-10-21 06:00:00 11.6 6 Este 16 Nordeste 0 -- -- 71
2019-10-21 05:00:00 11.4 6 Sur 22 Norte 0 -- -- 76
2019-10-21 04:00:00 12.5 11 Noroeste 35 Noroeste 0 -- -- 77
2019-10-21 03:00:00 13.1 10 Noroeste 26 Oeste 0 -- -- 80
2019-10-21 02:00:00 13.3 11 Norte 28 Nordeste 0 -- -- 77
2019-10-21 01:00:00 12.9 13 Nordeste 30 Nordeste 0 -- -- 82
2019-10-21 00:00:00 13 5 Nordeste 17 Nordeste 0 -- -- 87
2019-10-20 23:00:00 13.5 4 Este 16 Norte 0 -- -- 84
2019-10-20 22:00:00 13.7 8 Nordeste 21 Nordeste 0 -- -- 84
2019-10-20 21:00:00 14.1 7 Nordeste 19 Este 0 -- -- 86
2019-10-20 20:00:00 14.3 3 Este 9 Este 0 -- -- 89
2019-10-20 19:00:00 15 6 Nordeste 11 Nordeste 0.8 -- -- 93
2019-10-20 18:00:00 15.6 4 Oeste 17 Sur 0.2 -- -- 94
2019-10-20 17:00:00 16.5 6 Sur 23 Oeste 0 -- -- 88
2019-10-20 16:00:00 17.6 5 Sudoeste 11 Sudoeste 0 -- -- 81
2019-10-20 15:00:00 18.1 7 Noroeste 16 Sudoeste 0 -- -- 78
2019-10-20 14:00:00 18 8 Oeste 15 Sudoeste 0 -- -- 76
2019-10-20 13:00:00 18.1 8 Sudoeste 18 Norte 0 -- -- 72
2019-10-20 12:00:00 17.3 9 Nordeste 21 Este 0 -- -- 70
2019-10-20 11:00:00 16.6 6 Nordeste 14 Nordeste 0 -- -- 69
2019-10-20 10:00:00 15.6 6 Nordeste 14 Norte 0 -- -- 70
2019-10-20 09:00:00 15.1 8 Este 14 Este 0 -- -- 62
2019-10-20 08:00:00 13.7 3 Sudoeste 9 Sur 0 -- -- 61
2019-10-20 07:00:00 14.7 3 Sudeste 7 Sur 0 -- -- 62
2019-10-20 06:00:00 15.2 0 Calma 12 Este 0 -- -- 54
2019-10-20 05:00:00 15.3 0 Calma 8 Este 0 -- -- 64
2019-10-20 04:00:00 15.4 5 Este 10 Este 0 -- -- 66
2019-10-20 03:00:00 15.8 2 Este 7 Este 0 -- -- 64
2019-10-20 02:00:00 15.2 4 Sur 8 Sudeste 0 -- -- 68
2019-10-20 01:00:00 15.6 0 Calma 9 Nordeste 0 -- -- 72
2019-10-20 00:00:00 16.1 8 Este 15 Nordeste 0 -- -- 81
2019-10-19 23:00:00 16.5 6 Este 10 Este 0 -- -- 77
2019-10-19 22:00:00 17 2 Este 12 Nordeste 0 -- -- 66
2019-10-19 21:00:00 17.6 7 Nordeste 12 Nordeste 0 -- -- 59
2019-10-19 20:00:00 18.2 0 Calma 7 Oeste 0 -- -- 76
2019-10-19 19:00:00 20.7 4 Oeste 11 Noroeste 0 -- -- 68
2019-10-19 18:00:00 20.2 7 Nordeste 13 Nordeste 0 -- -- 68
2019-10-19 17:00:00 20.8 6 Nordeste 19 Nordeste 0 -- -- 66
2019-10-19 16:00:00 21.2 8 Nordeste 21 Nordeste 0 -- -- 64
2019-10-19 15:00:00 21.1 7 Noroeste 20 Noroeste 0 -- -- 61
2019-10-19 14:00:00 21.3 9 Norte 19 Noroeste 0 -- -- 57
2019-10-19 13:00:00 21 9 Noroeste 15 Nordeste 0 -- -- 54
2019-10-19 12:00:00 19.1 11 Nordeste 18 Nordeste 0 -- -- 57
2019-10-19 11:00:00 18.1 7 Nordeste 13 Nordeste 0 -- -- 53
2019-10-19 10:00:00 17.9 0 Calma 7 Nordeste 0 -- -- 30
2019-10-19 09:00:00 17.5 5 Este 9 Este 0 -- -- 31
2019-10-19 08:00:00 16.8 0 Calma 6 Sudeste 0 -- -- 33
2019-10-19 07:00:00 17.4 6 Sur 8 Sur 0 -- -- 30
2019-10-19 06:00:00 17.3 5 Sur 8 Sur 0 -- -- 30
2019-10-19 05:00:00 17.4 0 Calma 8 Este 0 -- -- 32
2019-10-19 04:00:00 17.7 4 Este 6 Este 0 -- -- 32
2019-10-19 03:00:00 17.8 3 Sudoeste 5 Sur 0 -- -- 31
2019-10-19 02:00:00 17.8 0 Calma 5 Este 0 -- -- 35
2019-10-19 01:00:00 18.1 0 Calma 6 Sudeste 0 -- -- 33
2019-10-19 00:00:00 18.5 4 Sudeste 8 Este 0 -- -- 32
2019-10-18 23:00:00 17.7 0 Calma 7 Sur 0 -- -- 37
2019-10-18 22:00:00 18.1 2 Sur 8 Sudeste 0 -- -- 34
2019-10-18 21:00:00 18.3 6 Sur 8 Sur 0 -- -- 46
2019-10-18 20:00:00 17.3 0 Calma 6 Oeste 0 -- -- 62
2019-10-18 19:00:00 19.4 5 Oeste 11 Oeste 0 -- -- 68
2019-10-18 18:00:00 19.6 5 Oeste 14 Norte 0 -- -- 69
2019-10-18 17:00:00 20.7 6 Noroeste 17 Nordeste 0 -- -- 65
2019-10-18 16:00:00 20.1 6 Este 19 Norte 0 -- -- 65
2019-10-18 15:00:00 20.6 6 Oeste 19 Nordeste 0 -- -- 61
2019-10-18 14:00:00 20 10 Norte 20 Noroeste 0 -- -- 61
2019-10-18 13:00:00 20.1 5 Oeste 12 Sudoeste 0 -- -- 59
2019-10-18 12:00:00 18.4 5 Noroeste 9 Noroeste 0 -- -- 61
2019-10-18 11:00:00 15.9 4 Nordeste 10 Nordeste 0 -- -- 72
2019-10-18 10:00:00 13.9 0 Calma 17 Nordeste 0 -- -- 55
2019-10-18 09:00:00 13.1 3 Sudeste 15 Este 0 -- -- 45
2019-10-18 08:00:00 13.4 10 Nordeste 17 Nordeste 0 -- -- 57
2019-10-18 07:00:00 15.7 3 Sudoeste 11 Sur 0 -- -- 26
2019-10-18 06:00:00 15.3 2 Sur 10 Este 0 -- -- 26
2019-10-18 05:00:00 16.1 6 Sur 9 Sudeste 0 -- -- 33
2019-10-18 04:00:00 16 5 Este 12 Este 0 -- -- 42
2019-10-18 03:00:00 16.1 4 Este 12 Nordeste 0 -- -- 49
2019-10-18 02:00:00 12.8 2 Sudoeste 6 Sudeste 0 -- -- 90
2019-10-18 01:00:00 13.3 3 Sudoeste 6 Sur 0 -- -- 84
2019-10-18 00:00:00 12.9 0 Calma -- -- 0 -- -- 83
2019-10-17 23:00:00 12.9 0 Calma 4 Norte 0 -- -- 93
2019-10-17 22:00:00 13.3 5 Nordeste 13 Este 0 -- -- 88
2019-10-17 21:00:00 14.1 3 Noroeste 6 Nordeste 0 -- -- 90
2019-10-17 20:00:00 14.6 5 Este 10 Nordeste 0 -- -- 84
2019-10-17 19:00:00 16.6 5 Oeste 9 Norte 0 -- -- 80
2019-10-17 18:00:00 17.1 6 Nordeste 15 Nordeste 0 -- -- 79
2019-10-17 17:00:00 18.5 8 Nordeste 18 Nordeste 0 -- -- 74
2019-10-17 16:00:00 19.5 11 Norte 19 Norte 0 -- -- 70
2019-10-17 15:00:00 19.9 7 Norte 17 Norte 0 -- -- 71
2019-10-17 14:00:00 19.7 7 Oeste 18 Nordeste 0 -- -- 71
2019-10-17 13:00:00 19.5 7 Oeste 15 Oeste 0 -- -- 70
2019-10-17 12:00:00 18.7 4 Norte 13 Nordeste 0 -- -- 73
2019-10-17 11:00:00 17 6 Nordeste 13 Nordeste 0 -- -- 75
2019-10-17 10:00:00 15 0 Calma 10 Sur 0 -- -- 69
2019-10-17 09:00:00 17.6 6 Sudoeste 14 Sudoeste 0 -- -- 55
2019-10-17 08:00:00 16.1 4 Sudeste 14 Sudoeste 0 -- -- 60
2019-10-17 07:00:00 13 3 Sudoeste 6 Sudoeste 0 -- -- 95
2019-10-17 06:00:00 13.1 3 Sudoeste 9 Sudoeste 0 -- -- 95
2019-10-17 05:00:00 13.3 4 Sudoeste 9 Noroeste 0 -- -- 94
2019-10-17 04:00:00 15.6 3 Noroeste 9 Este 0 -- -- 69
2019-10-17 03:00:00 15.7 0 Calma 10 Sur 0 -- -- 68
2019-10-17 02:00:00 17.1 4 Sur 10 Sudoeste 0 -- -- 56
2019-10-17 01:00:00 16.3 6 Sur 8 Sur 0 -- -- 67
2019-10-17 00:00:00 15.6 6 Noroeste 13 Noroeste 0 -- -- 86
2019-10-16 23:00:00 13.8 6 Oeste 17 Nordeste 0 -- -- 97
2019-10-16 22:00:00 13.7 4 Nordeste 12 Este 0 -- -- 95
2019-10-16 21:00:00 15.1 5 Oeste 10 Oeste 0 -- -- 92
2019-10-16 20:00:00 16.2 4 Sudoeste 6 Sur 0 -- -- 87
2019-10-16 19:00:00 16.6 2 Noroeste 13 Nordeste 0 -- -- 86
2019-10-16 18:00:00 17.1 6 Noroeste 18 Nordeste 0 -- -- 81
2019-10-16 17:00:00 18.4 9 Noroeste 23 Oeste 0 -- -- 78
2019-10-16 16:00:00 17.6 8 Oeste 17 Oeste 0 -- -- 84
2019-10-16 15:00:00 16 8 Nordeste 15 Nordeste 0 -- -- 89
2019-10-16 14:00:00 16.3 6 Norte 17 Norte 0 -- -- 86
2019-10-16 13:00:00 17.2 4 Norte 15 Oeste 0 -- -- 76
2019-10-16 12:00:00 17.3 4 Noroeste 16 Nordeste 0 -- -- 71
2019-10-16 11:00:00 16.9 3 Nordeste 10 Oeste 0 -- -- 70
2019-10-16 10:00:00 15.6 3 Norte 17 Este 0 -- -- 65
2019-10-16 09:00:00 14.5 6 Este 11 Nordeste 0 -- -- 64
2019-10-16 08:00:00 14.1 3 Sudoeste 8 Nordeste 0 -- -- 58
2019-10-16 07:00:00 14.7 0 Calma 10 Este 0 -- -- 57
2019-10-16 06:00:00 15 3 Nordeste 10 Este 0 -- -- 58
2019-10-16 05:00:00 15.4 3 Sur 7 Sur 0 -- -- 54
2019-10-16 04:00:00 14.1 2 Sur 6 Sur 0 -- -- 55
2019-10-16 03:00:00 14.5 0 Calma 5 Sudeste 0 -- -- 69
2019-10-16 02:00:00 15.2 3 Sudoeste 6 Sur 0 -- -- 65
2019-10-16 01:00:00 15.4 0 Calma 7 Nordeste 0 -- -- 58
2019-10-16 00:00:00 15.7 0 Calma 7 Este 0 -- -- 53
2019-10-15 23:00:00 16.6 3 Nordeste 14 Este 0 -- -- 55
2019-10-15 22:00:00 15.4 9 Este 14 Nordeste 0 -- -- 79
2019-10-15 21:00:00 14.4 7 Nordeste 11 Este 0 -- -- 86
2019-10-15 20:00:00 16.2 5 Oeste 13 Oeste 0 -- -- 87
2019-10-15 19:00:00 18 5 Oeste 13 Nordeste 0 -- -- 77
2019-10-15 18:00:00 19.3 6 Noroeste 17 Nordeste 0 -- -- 71
2019-10-15 17:00:00 21.3 10 Sudoeste 17 Sudoeste 0 -- -- 62
2019-10-15 16:00:00 22.4 9 Oeste 17 Oeste 0 -- -- 40
2019-10-15 15:00:00 19 8 Norte 21 Norte 0 -- -- 70
2019-10-15 14:00:00 17.5 10 Este 17 Este 0 -- -- 77
2019-10-15 13:00:00 17.5 6 Nordeste 18 Sudoeste 0 -- -- 73
2019-10-15 12:00:00 17.9 9 Sudoeste 15 Sudoeste 0 -- -- 70
2019-10-15 11:00:00 16.8 3 Noroeste 9 Noroeste 0 -- -- 66
2019-10-15 10:00:00 14.7 0 Calma 8 Este 0 -- -- 57
2019-10-15 09:00:00 14 5 Este 13 Nordeste 0 -- -- 72
2019-10-15 08:00:00 13.3 6 Este 13 Nordeste 0 -- -- 78
2019-10-15 07:00:00 13.6 0 Calma 12 Nordeste 0 -- -- 71
2019-10-15 06:00:00 13.2 3 Nordeste 11 Nordeste 0 -- -- 80
2019-10-15 05:00:00 13.3 3 Sudoeste 7 Este 0 -- -- 77
2019-10-15 04:00:00 14 0 Calma 5 Sur 0 -- -- 74
2019-10-15 03:00:00 14.1 0 Calma 6 Sudeste 0 -- -- 73
2019-10-15 02:00:00 14.1 3 Sur 5 Sudeste 0 -- -- 75
2019-10-15 01:00:00 14.1 0 Calma 5 Nordeste 0 -- -- 83
2019-10-15 00:00:00 14.3 2 Sudeste 12 Este 0 -- -- 80
2019-10-14 23:00:00 14.3 8 Nordeste 12 Nordeste 0 -- -- 91
2019-10-14 22:00:00 14.7 3 Nordeste 8 Nordeste 0 -- -- 91
2019-10-14 21:00:00 15.1 3 Oeste 10 Nordeste 0 -- -- 89
2019-10-14 20:00:00 15.4 5 Nordeste 14 Este 0 -- -- 89
2019-10-14 19:00:00 18.4 5 Norte 15 Noroeste 0 -- -- 74
2019-10-14 18:00:00 20.3 7 Sudoeste 16 Nordeste 0 -- -- 66
2019-10-14 17:00:00 19.9 8 Noroeste 22 Noroeste 0 -- -- 67
2019-10-14 16:00:00 20.2 10 Sudoeste 21 Sudoeste 0 -- -- 66
2019-10-14 15:00:00 19.8 10 Sudoeste 18 Oeste 0 -- -- 65
2019-10-14 14:00:00 20.3 9 Noroeste 16 Oeste 0 -- -- 58
2019-10-14 13:00:00 18.6 6 Sudoeste 17 Sudoeste 0 -- -- 62
2019-10-14 12:00:00 18.3 5 Oeste 16 Nordeste 0 -- -- 51
2019-10-14 11:00:00 17 0 Calma 13 Este 0 -- -- 44
2019-10-14 10:00:00 15.1 3 Sudeste 7 Sudeste 0 -- -- 39
2019-10-14 09:00:00 14.1 3 Sudeste 6 Sudeste 0 -- -- 42
2019-10-14 08:00:00 14.7 3 Sudeste 9 Nordeste 0 -- -- 38
2019-10-14 07:00:00 14.2 3 Sudeste 6 Sudeste 0 -- -- 43
2019-10-14 06:00:00 14.1 4 Nordeste 10 Este 0 -- -- 42
2019-10-14 05:00:00 13.7 5 Este 12 Nordeste 0 -- -- 43
2019-10-14 04:00:00 14.8 3 Sudeste 7 Sudeste 0 -- -- 42
2019-10-14 03:00:00 13.9 6 Sur 12 Este 0 -- -- 50
2019-10-14 02:00:00 14 3 Norte 8 Este 0 -- -- 55
2019-10-14 01:00:00 13.6 3 Este 13 Este 0 -- -- 72
2019-10-14 00:00:00 13.8 6 Sur 13 Este 0 -- -- 49